createdAt,value
2019-04-30T00:00:18.208Z,5.94
2019-04-30T00:03:11.599Z,5.85
2019-04-30T00:05:37.250Z,5.79
2019-04-30T00:08:05.473Z,5.73
2019-04-30T00:10:36.986Z,5.61
2019-04-30T00:13:01.171Z,5.48
2019-04-30T00:15:27.952Z,5.41
2019-04-30T00:18:00.286Z,5.32
2019-04-30T00:20:23.020Z,5.31
2019-04-30T00:22:50.496Z,5.27
2019-04-30T00:25:19.650Z,5.17
2019-04-30T00:27:48.058Z,5.10
2019-04-30T00:30:15.473Z,5.05
2019-04-30T00:32:43.831Z,5.01
2019-04-30T00:35:11.907Z,5.01
2019-04-30T00:37:39.704Z,5.01
2019-04-30T00:40:06.398Z,5.06
2019-04-30T00:42:33.000Z,5.02
2019-04-30T00:45:03.965Z,4.93
2019-04-30T00:47:28.097Z,4.83
2019-04-30T00:49:57.539Z,4.73
2019-04-30T00:52:25.200Z,4.67
2019-04-30T00:54:51.745Z,4.61
2019-04-30T00:57:18.525Z,4.58
2019-04-30T00:59:47.950Z,4.58
2019-04-30T01:02:40.193Z,4.58
2019-04-30T01:05:11.652Z,4.63
2019-04-30T01:07:39.573Z,4.62
2019-04-30T01:10:07.656Z,4.54
2019-04-30T01:12:41.060Z,4.46
2019-04-30T01:15:06.446Z,4.37
2019-04-30T01:17:31.683Z,4.28
2019-04-30T01:19:59.235Z,4.21
2019-04-30T01:22:31.126Z,4.29
2019-04-30T01:24:55.194Z,4.25
2019-04-30T01:27:22.001Z,4.23
2019-04-30T01:29:48.842Z,4.16
2019-04-30T01:32:19.676Z,4.09
2019-04-30T01:34:50.063Z,4.00
2019-04-30T01:37:13.083Z,3.94
2019-04-30T01:39:39.618Z,3.85
2019-04-30T01:42:07.959Z,3.78
2019-04-30T01:44:34.563Z,3.79
2019-04-30T01:47:01.044Z,3.87
2019-04-30T01:49:28.959Z,3.81
2019-04-30T01:51:57.356Z,3.70
2019-04-30T01:54:24.739Z,3.64
2019-04-30T01:57:05.899Z,3.57
2019-04-30T01:59:54.908Z,3.54
2019-04-30T02:02:23.364Z,3.52
2019-04-30T02:04:50.175Z,3.56
2019-04-30T02:07:16.699Z,3.54
2019-04-30T02:09:43.174Z,3.52
2019-04-30T02:12:09.808Z,3.63
2019-04-30T02:14:36.407Z,3.72
2019-04-30T02:17:02.989Z,3.77
2019-04-30T02:19:32.404Z,3.77
2019-04-30T02:22:01.284Z,3.71
2019-04-30T02:24:28.849Z,3.61
2019-04-30T02:26:55.385Z,3.52
2019-04-30T02:29:21.950Z,3.40
2019-04-30T02:31:50.328Z,3.29
2019-04-30T02:34:23.892Z,3.22
2019-04-30T02:36:59.143Z,3.18
2019-04-30T02:39:25.151Z,3.12
2019-04-30T02:41:52.170Z,3.09
2019-04-30T02:44:19.755Z,3.06
2019-04-30T02:46:50.466Z,3.06
2019-04-30T02:49:20.172Z,3.09
2019-04-30T02:51:46.496Z,3.14
2019-04-30T02:54:20.202Z,3.18
2019-04-30T02:57:05.950Z,3.19
2019-04-30T02:59:32.524Z,3.20
2019-04-30T03:01:59.827Z,3.18
2019-04-30T03:04:26.519Z,3.13
2019-04-30T03:06:55.117Z,3.08
2019-04-30T03:09:21.652Z,3.05
2019-04-30T03:11:49.860Z,3.03
2019-04-30T03:14:36.551Z,2.97
2019-04-30T03:17:20.925Z,2.95
2019-04-30T03:19:52.414Z,2.90
2019-04-30T03:22:21.260Z,2.86
2019-04-30T03:24:50.159Z,2.79
2019-04-30T03:27:16.861Z,2.71
2019-04-30T03:29:43.350Z,2.67
2019-04-30T03:32:13.425Z,2.59
2019-04-30T03:34:42.064Z,2.56
2019-04-30T03:37:09.716Z,2.49
2019-04-30T03:39:35.488Z,2.44
2019-04-30T03:42:02.068Z,2.40
2019-04-30T03:44:31.733Z,2.39
2019-04-30T03:46:59.365Z,2.34
2019-04-30T03:49:25.610Z,2.28
2019-04-30T03:51:52.209Z,2.24
2019-04-30T03:54:19.483Z,2.19
2019-04-30T03:56:46.319Z,2.16
2019-04-30T03:59:12.853Z,2.16
2019-04-30T04:02:04.962Z,2.14
2019-04-30T04:05:01.131Z,2.19
2019-04-30T04:07:42.403Z,2.19
2019-04-30T04:10:19.536Z,2.20
2019-04-30T04:12:46.352Z,2.20
2019-04-30T04:15:13.094Z,2.23
2019-04-30T04:17:39.926Z,2.23
2019-04-30T04:20:06.957Z,2.25
2019-04-30T04:22:33.877Z,2.24
2019-04-30T04:25:00.762Z,2.23
2019-04-30T04:27:29.829Z,2.24
2019-04-30T04:29:57.020Z,2.25
2019-04-30T04:32:24.219Z,2.28
2019-04-30T04:34:51.381Z,2.35
2019-04-30T04:37:20.345Z,2.42
2019-04-30T04:39:50.113Z,2.50
2019-04-30T04:42:16.189Z,2.61
2019-04-30T04:44:42.764Z,2.71
2019-04-30T04:47:09.921Z,2.83
2019-04-30T04:49:39.785Z,2.98
2019-04-30T04:52:06.444Z,3.13
2019-04-30T04:54:33.084Z,3.24
2019-04-30T04:57:13.992Z,3.40
2019-04-30T04:59:42.470Z,3.52
2019-04-30T05:02:32.666Z,3.68
2019-04-30T05:05:00.044Z,3.85
2019-04-30T05:07:28.523Z,4.04
2019-04-30T05:09:55.094Z,4.16
2019-04-30T05:12:21.781Z,4.29
2019-04-30T05:14:48.468Z,4.42
2019-04-30T05:17:15.224Z,4.60
2019-04-30T05:19:44.280Z,4.78
2019-04-30T05:22:10.911Z,4.98
2019-04-30T05:24:38.428Z,5.14
2019-04-30T05:27:05.948Z,5.30
2019-04-30T05:29:32.569Z,5.47
2019-04-30T05:31:59.138Z,5.68
2019-04-30T05:34:25.672Z,5.82
2019-04-30T05:36:52.458Z,5.88
2019-04-30T05:39:18.991Z,6.07
2019-04-30T05:41:49.052Z,6.20
2019-04-30T05:44:15.368Z,6.31
2019-04-30T05:46:41.934Z,6.37
2019-04-30T05:49:09.034Z,6.54
2019-04-30T05:51:35.682Z,6.78
2019-04-30T05:54:02.274Z,6.91
2019-04-30T05:56:30.533Z,7.05
2019-04-30T05:58:59.236Z,7.22
2019-04-30T06:01:25.902Z,7.43
2019-04-30T06:03:52.503Z,7.29
2019-04-30T06:06:19.456Z,7.43
2019-04-30T06:09:06.683Z,7.46
2019-04-30T06:12:11.268Z,7.48
2019-04-30T06:14:48.877Z,7.59
2019-04-30T06:17:15.589Z,7.75
2019-04-30T06:19:42.774Z,7.92
2019-04-30T06:22:10.971Z,8.18
2019-04-30T06:24:39.535Z,8.40
2019-04-30T06:27:06.332Z,8.52
2019-04-30T06:29:33.301Z,8.39
2019-04-30T06:32:01.766Z,8.54
2019-04-30T06:34:29.500Z,8.76
2019-04-30T06:36:57.102Z,8.78
2019-04-30T06:39:24.504Z,8.87
2019-04-30T06:42:21.744Z,8.82
2019-04-30T06:44:49.432Z,9.05
2019-04-30T06:47:16.481Z,9.26
2019-04-30T06:49:43.324Z,9.51
2019-04-30T06:52:20.289Z,9.73
2019-04-30T06:54:39.714Z,9.86
2019-04-30T06:57:09.768Z,10.06
2019-04-30T06:59:37.123Z,10.27
2019-04-30T07:02:05.971Z,10.44
2019-04-30T07:04:32.513Z,10.62
2019-04-30T07:06:59.099Z,10.95
2019-04-30T07:09:49.880Z,10.84
2019-04-30T07:12:29.841Z,10.76
2019-04-30T07:14:55.389Z,10.84
2019-04-30T07:17:22.012Z,10.88
2019-04-30T07:19:55.724Z,10.98
2019-04-30T07:22:19.159Z,10.80
2019-04-30T07:24:46.498Z,10.88
2019-04-30T07:27:13.029Z,10.90
2019-04-30T07:29:39.583Z,11.42
2019-04-30T07:32:06.258Z,11.04
2019-04-30T07:34:36.987Z,11.06
2019-04-30T07:37:11.828Z,11.61
2019-04-30T07:39:33.375Z,11.79
2019-04-30T07:41:59.913Z,11.78
2019-04-30T07:44:33.787Z,12.04
2019-04-30T07:46:55.689Z,12.25
2019-04-30T07:49:22.203Z,12.35
2019-04-30T07:51:51.639Z,12.66
2019-04-30T07:54:18.984Z,12.23
2019-04-30T07:56:45.779Z,12.16
2019-04-30T07:59:12.417Z,12.49
2019-04-30T08:02:00.010Z,12.86
2019-04-30T08:04:29.095Z,13.57
2019-04-30T08:06:59.703Z,13.25
2019-04-30T08:09:26.553Z,12.98
2019-04-30T08:11:53.061Z,13.57
2019-04-30T08:14:21.137Z,13.14
2019-04-30T08:16:48.439Z,13.12
2019-04-30T08:19:16.462Z,13.29
2019-04-30T08:21:45.332Z,13.45
2019-04-30T08:24:11.876Z,13.87
2019-04-30T08:26:39.741Z,13.46
2019-04-30T08:29:06.627Z,13.74
2019-04-30T08:31:33.455Z,13.74
2019-04-30T08:34:00.389Z,13.51
2019-04-30T08:36:29.799Z,13.52
2019-04-30T08:38:59.649Z,13.88
2019-04-30T08:41:26.501Z,14.02
2019-04-30T08:43:53.088Z,14.17
2019-04-30T08:46:19.735Z,14.30
2019-04-30T08:48:51.614Z,14.43
2019-04-30T08:51:15.225Z,14.38
2019-04-30T08:53:41.987Z,14.00
2019-04-30T08:56:10.091Z,14.60
2019-04-30T08:58:38.946Z,14.32
2019-04-30T09:01:05.546Z,14.61
2019-04-30T09:03:32.491Z,15.18
2019-04-30T09:06:19.628Z,15.56
2019-04-30T09:08:49.031Z,15.08
2019-04-30T09:11:27.123Z,15.13
2019-04-30T09:13:44.249Z,14.90
2019-04-30T09:16:11.035Z,15.70
2019-04-30T09:18:39.349Z,16.00
2019-04-30T09:21:06.574Z,16.00
2019-04-30T09:23:43.918Z,15.52
2019-04-30T09:26:02.481Z,14.81
2019-04-30T09:28:29.500Z,14.55
2019-04-30T09:30:56.332Z,14.50
2019-04-30T09:33:22.899Z,15.01
2019-04-30T09:35:49.672Z,14.55
2019-04-30T09:38:16.239Z,14.95
2019-04-30T09:40:42.806Z,15.00
2019-04-30T09:43:09.395Z,15.56
2019-04-30T09:45:36.241Z,15.56
2019-04-30T09:48:03.170Z,15.40
2019-04-30T09:50:30.550Z,15.37
2019-04-30T09:52:57.922Z,16.08
2019-04-30T09:55:25.672Z,16.07
2019-04-30T09:57:52.273Z,15.88
2019-04-30T10:00:19.454Z,16.28
2019-04-30T10:02:46.508Z,16.49
2019-04-30T10:05:14.514Z,16.45
2019-04-30T10:07:41.807Z,16.62
2019-04-30T10:10:11.402Z,16.46
2019-04-30T10:12:39.228Z,17.65
2019-04-30T10:15:09.146Z,17.07
2019-04-30T10:17:40.511Z,17.69
2019-04-30T10:20:11.806Z,16.74
2019-04-30T10:22:40.111Z,17.15
2019-04-30T10:25:09.147Z,17.54
2019-04-30T10:27:35.902Z,17.92
2019-04-30T10:30:03.701Z,18.03
2019-04-30T10:32:30.591Z,17.78
2019-04-30T10:34:57.258Z,17.02
2019-04-30T10:37:23.977Z,17.12
2019-04-30T10:39:50.911Z,17.24
2019-04-30T10:42:17.415Z,18.07
2019-04-30T10:44:43.947Z,17.97
2019-04-30T10:47:10.876Z,18.14
2019-04-30T10:49:38.975Z,18.44
2019-04-30T10:52:09.343Z,18.38
2019-04-30T10:54:36.156Z,18.55
2019-04-30T10:57:02.889Z,18.74
2019-04-30T10:59:29.828Z,18.93
2019-04-30T11:01:56.771Z,18.81
2019-04-30T11:04:23.319Z,19.25
2019-04-30T11:06:50.054Z,19.00
2019-04-30T11:09:16.744Z,19.54
2019-04-30T11:11:43.383Z,18.67
2019-04-30T11:14:09.992Z,18.80
2019-04-30T11:16:36.693Z,18.80
2019-04-30T11:19:04.235Z,19.15
2019-04-30T11:21:31.071Z,18.38
2019-04-30T11:23:59.433Z,18.02
2019-04-30T11:26:30.787Z,18.73
2019-04-30T11:28:56.128Z,18.75
2019-04-30T11:31:41.576Z,18.92
2019-04-30T11:34:08.375Z,19.18
2019-04-30T11:36:38.884Z,19.31
2019-04-30T11:39:10.910Z,19.39
2019-04-30T11:41:39.547Z,19.55
2019-04-30T11:44:06.185Z,19.78
2019-04-30T11:47:24.694Z,18.77
2019-04-30T11:49:51.277Z,18.89
2019-04-30T11:52:20.053Z,19.35
2019-04-30T11:54:51.535Z,19.45
2019-04-30T11:57:15.056Z,19.33
2019-04-30T11:59:45.626Z,18.37
2019-04-30T12:02:26.199Z,19.30
2019-04-30T12:04:52.836Z,18.78
2019-04-30T12:07:26.385Z,18.41
2019-04-30T12:10:00.907Z,19.31
2019-04-30T12:12:28.943Z,19.53
2019-04-30T12:14:55.649Z,19.99
2019-04-30T12:17:22.299Z,20.47
2019-04-30T12:19:49.891Z,20.30
2019-04-30T12:22:20.004Z,20.01
2019-04-30T12:24:45.153Z,20.19
2019-04-30T12:27:12.276Z,20.67
2019-04-30T12:29:39.776Z,20.56
2019-04-30T12:32:06.412Z,20.80
2019-04-30T12:34:33.143Z,19.79
2019-04-30T12:36:59.726Z,19.87
2019-04-30T12:39:26.293Z,19.70
2019-04-30T12:41:53.130Z,19.95
2019-04-30T12:44:19.716Z,20.53
2019-04-30T12:46:48.531Z,20.44
2019-04-30T12:49:15.196Z,20.71
2019-04-30T12:51:58.636Z,20.84
2019-04-30T12:54:53.907Z,21.14
2019-04-30T12:57:26.327Z,20.84
2019-04-30T12:59:53.075Z,19.70
2019-04-30T13:02:19.839Z,20.58
2019-04-30T13:04:46.426Z,20.20
2019-04-30T13:07:13.907Z,20.10
2019-04-30T13:09:41.533Z,19.70
2019-04-30T13:12:10.369Z,19.92
2019-04-30T13:14:51.031Z,20.06
2019-04-30T13:17:07.344Z,19.82
2019-04-30T13:19:34.074Z,18.67
2019-04-30T13:22:00.992Z,18.86
2019-04-30T13:24:31.085Z,19.06
2019-04-30T13:26:56.095Z,18.96
2019-04-30T13:29:30.411Z,18.94
2019-04-30T13:31:58.587Z,18.75
2019-04-30T13:34:54.096Z,18.96
2019-04-30T13:37:20.721Z,19.15
2019-04-30T13:40:03.044Z,18.41
2019-04-30T13:42:33.663Z,18.31
2019-04-30T13:45:00.207Z,18.38
2019-04-30T13:47:29.140Z,18.55
2019-04-30T13:49:55.366Z,18.68
2019-04-30T13:52:22.101Z,18.66
2019-04-30T13:54:49.060Z,18.70
2019-04-30T13:57:15.656Z,18.96
2019-04-30T13:59:44.555Z,18.90
2019-04-30T14:02:11.308Z,18.53
2019-04-30T14:05:00.784Z,18.48
2019-04-30T14:07:53.156Z,18.10
2019-04-30T14:10:19.836Z,17.70
2019-04-30T14:12:53.637Z,17.51
2019-04-30T14:15:20.489Z,17.47
2019-04-30T14:17:47.156Z,17.53
2019-04-30T14:20:13.841Z,17.87
2019-04-30T14:22:40.358Z,17.52
2019-04-30T14:25:07.168Z,17.50
2019-04-30T14:27:33.693Z,17.37
2019-04-30T14:30:00.334Z,17.47
2019-04-30T14:32:28.502Z,17.75
2019-04-30T14:34:55.234Z,17.47
2019-04-30T14:37:21.918Z,17.05
2019-04-30T14:39:49.070Z,17.05
2019-04-30T14:42:17.756Z,17.13
2019-04-30T14:44:45.764Z,17.16
2019-04-30T14:47:29.836Z,17.29
2019-04-30T14:50:12.770Z,17.04
2019-04-30T14:52:46.817Z,17.07
2019-04-30T14:55:34.513Z,16.99
2019-04-30T14:58:20.993Z,16.81
2019-04-30T15:00:59.236Z,16.88
2019-04-30T15:03:26.554Z,16.73
2019-04-30T15:05:53.257Z,16.63
2019-04-30T15:08:19.812Z,16.70
2019-04-30T15:10:46.486Z,16.49
2019-04-30T15:13:13.073Z,16.45
2019-04-30T15:15:39.736Z,16.47
2019-04-30T15:18:06.906Z,16.21
2019-04-30T15:20:33.568Z,16.40
2019-04-30T15:23:21.250Z,16.58
2019-04-30T15:25:48.640Z,16.56
2019-04-30T15:28:15.297Z,16.56
2019-04-30T15:30:42.190Z,16.58
2019-04-30T15:33:17.425Z,16.51
2019-04-30T15:35:44.390Z,16.56
2019-04-30T15:38:11.033Z,16.77
2019-04-30T15:40:38.767Z,16.95
2019-04-30T15:43:06.125Z,16.73
2019-04-30T15:45:32.719Z,16.44
2019-04-30T15:47:59.415Z,16.58
2019-04-30T15:50:26.316Z,16.59
2019-04-30T15:52:53.449Z,16.59
2019-04-30T15:55:20.318Z,16.59
2019-04-30T15:57:59.333Z,16.43
2019-04-30T16:00:29.243Z,16.45
2019-04-30T16:03:02.102Z,16.49
2019-04-30T16:05:43.123Z,16.59
2019-04-30T16:08:23.374Z,16.71
2019-04-30T16:11:19.510Z,16.72
2019-04-30T16:14:18.584Z,16.65
2019-04-30T16:17:14.546Z,16.63
2019-04-30T16:19:49.979Z,16.70
2019-04-30T16:22:23.529Z,16.48
2019-04-30T16:24:50.075Z,16.35
2019-04-30T16:27:16.688Z,16.46
2019-04-30T16:29:43.527Z,16.54
2019-04-30T16:32:10.147Z,16.47
2019-04-30T16:34:38.715Z,16.44
2019-04-30T16:37:05.597Z,16.41
2019-04-30T16:39:32.318Z,16.24
2019-04-30T16:41:59.263Z,16.22
2019-04-30T16:44:25.863Z,16.20
2019-04-30T16:46:52.507Z,16.22
2019-04-30T16:49:21.224Z,16.21
2019-04-30T16:51:47.874Z,16.08
2019-04-30T16:54:16.215Z,15.94
2019-04-30T16:56:42.727Z,15.81
2019-04-30T16:59:11.226Z,15.70
2019-04-30T17:01:37.937Z,15.64
2019-04-30T17:04:11.899Z,15.64
2019-04-30T17:06:41.748Z,15.60
2019-04-30T17:09:17.600Z,15.63
2019-04-30T17:12:04.714Z,15.59
2019-04-30T17:14:32.014Z,15.40
2019-04-30T17:16:59.727Z,15.40
2019-04-30T17:19:31.701Z,15.34
2019-04-30T17:21:58.385Z,15.34
2019-04-30T17:24:24.931Z,15.37
2019-04-30T17:26:51.570Z,15.33
2019-04-30T17:29:19.490Z,15.28
2019-04-30T17:31:46.011Z,15.23
2019-04-30T17:34:12.530Z,15.15
2019-04-30T17:36:39.663Z,15.08
2019-04-30T17:39:08.157Z,14.96
2019-04-30T17:41:35.427Z,14.94
2019-04-30T17:44:01.975Z,14.86
2019-04-30T17:46:29.112Z,14.81
2019-04-30T17:48:55.578Z,14.72
2019-04-30T17:51:22.934Z,14.67
2019-04-30T18:38:31.155Z,13.09
2019-04-30T18:40:59.462Z,12.95
2019-04-30T18:43:26.264Z,12.84
2019-04-30T18:45:52.891Z,12.72
2019-04-30T18:48:21.112Z,12.65
2019-04-30T18:50:49.511Z,12.48
2019-04-30T18:53:20.941Z,12.34
2019-04-30T18:55:50.490Z,12.22
2019-04-30T18:58:16.123Z,12.12
2019-04-30T19:00:44.694Z,11.95
2019-04-30T19:03:11.407Z,11.83
2019-04-30T19:05:39.296Z,11.70
2019-04-30T19:08:11.811Z,11.62
2019-04-30T19:10:56.632Z,11.51
2019-04-30T19:13:53.040Z,11.45
2019-04-30T19:16:45.367Z,11.36
2019-04-30T19:19:16.981Z,11.31
2019-04-30T19:21:43.540Z,11.21
2019-04-30T19:24:10.148Z,11.11
2019-04-30T19:26:38.826Z,11.06
2019-04-30T19:29:07.562Z,11.04
2019-04-30T19:31:34.451Z,11.01
2019-04-30T19:34:01.064Z,11.01
2019-04-30T19:36:35.000Z,10.90
2019-04-30T19:38:56.255Z,10.75
2019-04-30T19:41:23.114Z,10.64
2019-04-30T19:43:50.204Z,10.53
2019-04-30T19:46:18.747Z,10.41
2019-04-30T19:48:45.584Z,10.28
2019-04-30T19:51:12.410Z,10.17
2019-04-30T19:53:39.552Z,10.10
2019-04-30T19:56:06.624Z,10.10
2019-04-30T19:58:47.664Z,10.18
2019-04-30T20:01:01.560Z,10.24
2019-04-30T20:03:29.260Z,10.27
2019-04-30T20:05:56.163Z,10.36
2019-04-30T20:08:23.878Z,10.42
2019-04-30T20:10:50.472Z,10.36
2019-04-30T20:13:30.889Z,10.23
2019-04-30T20:15:45.737Z,10.16
2019-04-30T20:18:12.609Z,10.09
2019-04-30T20:20:41.167Z,10.04
2019-04-30T20:23:07.847Z,10.16
2019-04-30T20:25:34.392Z,10.18
2019-04-30T20:28:01.079Z,10.22
2019-04-30T20:30:29.206Z,10.24
2019-04-30T20:32:56.442Z,10.25
2019-04-30T20:35:23.143Z,10.29
2019-04-30T20:38:09.408Z,10.25
2019-04-30T20:40:43.382Z,10.21
2019-04-30T20:43:05.240Z,10.18
2019-04-30T20:45:32.000Z,10.21
2019-04-30T20:47:59.220Z,10.22
2019-04-30T20:50:26.040Z,10.24
2019-04-30T20:52:52.504Z,10.25
2019-04-30T20:55:27.587Z,10.22
2019-04-30T20:57:54.092Z,10.24
2019-04-30T21:00:26.683Z,10.18
2019-04-30T21:02:53.196Z,10.03
2019-04-30T21:05:19.776Z,9.99
2019-04-30T21:07:46.246Z,9.96
2019-04-30T21:10:13.033Z,9.90
2019-04-30T21:12:39.746Z,9.88
2019-04-30T21:15:07.276Z,9.81
2019-04-30T21:17:33.819Z,9.69
2019-04-30T21:20:01.023Z,9.65
2019-04-30T21:22:29.481Z,9.64
2019-04-30T21:24:56.086Z,9.60
2019-04-30T21:27:22.613Z,9.63
2019-04-30T21:29:49.403Z,9.60
2019-04-30T21:32:25.563Z,9.57
2019-04-30T21:35:03.439Z,9.55
2019-04-30T21:37:29.993Z,9.49
2019-04-30T21:39:58.228Z,9.41
2019-04-30T21:42:25.004Z,9.43
2019-04-30T21:44:51.530Z,9.45
2019-04-30T21:47:18.054Z,9.44
2019-04-30T21:49:45.245Z,9.46
2019-04-30T21:52:11.749Z,9.50
2019-04-30T21:54:38.762Z,9.53
2019-04-30T21:57:06.028Z,9.55
2019-04-30T21:59:34.942Z,9.53
2019-04-30T22:02:01.624Z,9.49
2019-04-30T22:04:28.141Z,9.44
2019-04-30T22:06:55.042Z,9.41
2019-04-30T22:09:21.540Z,9.39
2019-04-30T22:11:49.369Z,9.39
2019-04-30T22:14:16.064Z,9.40
2019-04-30T22:16:42.715Z,9.38
2019-04-30T22:19:09.276Z,9.33
2019-04-30T22:21:36.221Z,9.29
2019-04-30T22:24:02.957Z,9.34
2019-04-30T22:26:29.798Z,9.33
2019-04-30T22:28:56.258Z,9.36
2019-04-30T22:31:22.814Z,9.32
2019-04-30T22:33:49.428Z,9.35
2019-04-30T22:36:21.972Z,9.34
2019-04-30T22:39:12.032Z,9.33
2019-04-30T22:41:39.785Z,9.34
2019-04-30T22:44:06.324Z,9.29
2019-04-30T22:46:32.847Z,9.31
2019-04-30T22:48:59.333Z,9.31
2019-04-30T22:51:25.960Z,9.29
2019-04-30T22:53:52.461Z,9.26
2019-04-30T22:56:19.070Z,9.21
2019-04-30T22:58:45.782Z,9.22
2019-04-30T23:01:23.584Z,9.11
2019-04-30T23:03:52.125Z,9.11
2019-04-30T23:06:18.669Z,9.16
2019-04-30T23:08:45.154Z,9.15
2019-04-30T23:11:11.614Z,9.09
2019-04-30T23:13:38.174Z,9.10
2019-04-30T23:16:05.377Z,9.08
2019-04-30T23:18:32.265Z,9.09
2019-04-30T23:20:58.935Z,9.03
2019-04-30T23:23:25.447Z,8.98
2019-04-30T23:25:52.210Z,8.93
2019-04-30T23:28:19.108Z,8.90
2019-04-30T23:30:47.293Z,8.87
2019-04-30T23:33:13.816Z,8.83
2019-04-30T23:35:40.626Z,8.81
2019-04-30T23:38:07.218Z,8.79
2019-04-30T23:40:49.126Z,8.72
2019-04-30T23:43:15.881Z,8.64
2019-04-30T23:45:42.380Z,8.56
2019-04-30T23:48:08.895Z,8.51
2019-04-30T23:50:35.465Z,8.41
2019-04-30T23:53:02.225Z,8.38
2019-04-30T23:55:29.296Z,8.33
2019-04-30T23:57:55.817Z,8.27
